createdAt,value
2023-04-04T00:00:25.581Z,4.93
2023-04-04T00:02:54.794Z,4.00
2023-04-04T00:05:21.302Z,4.07
2023-04-04T00:07:48.023Z,3.67
2023-04-04T00:10:15.038Z,3.77
2023-04-04T00:12:42.313Z,3.60
2023-04-04T00:15:09.285Z,4.00
2023-04-04T00:17:35.772Z,3.57
2023-04-04T00:20:04.499Z,3.43
2023-04-04T00:22:31.538Z,3.10
2023-04-04T00:24:58.151Z,3.03
2023-04-04T00:27:24.620Z,3.40
2023-04-04T00:29:51.091Z,3.53
2023-04-04T00:32:17.580Z,3.50
2023-04-04T00:34:44.070Z,3.07
2023-04-04T00:37:13.089Z,3.40
2023-04-04T00:39:39.697Z,3.83
2023-04-04T00:42:06.644Z,3.23
2023-04-04T00:44:35.704Z,3.33
2023-04-04T00:47:03.214Z,3.60
2023-04-04T00:49:29.693Z,3.27
2023-04-04T00:51:56.889Z,3.30
2023-04-04T00:54:23.495Z,3.97
2023-04-04T00:56:55.110Z,3.33
2023-04-04T00:59:27.784Z,3.93
2023-04-04T01:01:54.417Z,3.60
2023-04-04T01:04:21.247Z,3.90
2023-04-04T01:06:47.808Z,3.53
2023-04-04T01:09:14.257Z,3.20
2023-04-04T01:11:40.815Z,3.67
2023-04-04T01:14:07.438Z,4.07
2023-04-04T01:16:35.943Z,3.80
2023-04-04T01:19:02.969Z,3.73
2023-04-04T01:21:29.663Z,3.23
2023-04-04T01:24:01.347Z,3.20
2023-04-04T01:26:28.954Z,4.00
2023-04-04T01:28:56.461Z,3.47
2023-04-04T01:31:44.136Z,3.77
2023-04-04T01:34:38.070Z,3.70
2023-04-04T01:37:23.248Z,3.50
2023-04-04T01:39:54.060Z,4.00
2023-04-04T01:42:20.559Z,3.70
2023-04-04T01:44:47.300Z,3.77
2023-04-04T01:47:13.804Z,3.63
2023-04-04T01:49:40.885Z,3.90
2023-04-04T01:52:07.432Z,3.70
2023-04-04T01:54:35.918Z,4.00
2023-04-04T01:57:02.618Z,4.47
2023-04-04T01:59:29.310Z,4.33
2023-04-04T02:01:56.267Z,4.37
2023-04-04T02:04:23.227Z,3.67
2023-04-04T02:06:50.334Z,3.70
2023-04-04T02:09:16.847Z,3.73
2023-04-04T02:11:43.310Z,3.83
2023-04-04T02:14:09.852Z,3.90
2023-04-04T02:16:36.328Z,3.97
2023-04-04T02:19:02.935Z,4.20
2023-04-04T02:21:29.394Z,3.20
2023-04-04T02:23:55.828Z,3.60
2023-04-04T02:26:22.511Z,3.43
2023-04-04T02:28:48.971Z,3.90
2023-04-04T02:31:15.793Z,3.30
2023-04-04T02:33:42.284Z,3.40
2023-04-04T02:36:09.107Z,3.40
2023-04-04T02:38:35.552Z,3.00
2023-04-04T02:41:02.044Z,3.10
2023-04-04T02:43:28.479Z,3.07
2023-04-04T02:45:55.003Z,3.20
2023-04-04T02:48:21.477Z,3.07
2023-04-04T02:50:48.090Z,3.47
2023-04-04T02:53:14.614Z,3.70
2023-04-04T02:55:41.107Z,3.73
2023-04-04T02:58:07.648Z,3.40
2023-04-04T03:00:34.114Z,3.33
2023-04-04T03:03:00.683Z,3.83
2023-04-04T03:05:28.375Z,3.77
2023-04-04T03:07:58.265Z,3.40
2023-04-04T03:10:25.803Z,4.00
2023-04-04T03:12:52.339Z,4.00
2023-04-04T03:15:19.568Z,3.80
2023-04-04T03:17:46.740Z,3.80
2023-04-04T03:20:15.123Z,4.17
2023-04-04T03:22:42.213Z,4.50
2023-04-04T03:25:09.370Z,4.23
2023-04-04T03:27:35.910Z,3.30
2023-04-04T03:30:02.846Z,3.97
2023-04-04T03:32:29.802Z,4.03
2023-04-04T03:34:56.542Z,4.10
2023-04-04T03:37:23.274Z,4.00
2023-04-04T03:39:49.743Z,3.57
2023-04-04T03:42:16.838Z,3.73
2023-04-04T03:44:43.289Z,4.23
2023-04-04T03:47:09.803Z,3.80
2023-04-04T03:49:36.309Z,3.40
2023-04-04T03:52:03.287Z,3.80
2023-04-04T03:54:29.745Z,3.53
2023-04-04T03:56:57.078Z,3.83
2023-04-04T03:59:23.775Z,3.83
2023-04-04T04:01:50.695Z,3.97
2023-04-04T04:04:17.179Z,3.20
2023-04-04T04:06:44.115Z,3.77
2023-04-04T04:09:12.296Z,3.63
2023-04-04T04:11:38.828Z,3.33
2023-04-04T04:14:05.441Z,3.57
2023-04-04T04:16:33.023Z,3.53
2023-04-04T04:18:59.730Z,3.70
2023-04-04T04:21:26.262Z,3.60
2023-04-04T04:23:52.771Z,3.77
2023-04-04T04:26:19.299Z,4.07
2023-04-04T04:28:48.188Z,4.73
2023-04-04T04:31:14.856Z,4.57
2023-04-04T04:33:41.590Z,4.47
2023-04-04T04:36:08.318Z,4.40
2023-04-04T04:38:34.845Z,4.83
2023-04-04T04:41:01.907Z,4.87
2023-04-04T04:43:28.385Z,4.40
2023-04-04T04:45:54.980Z,3.40
2023-04-04T04:48:21.508Z,3.33
2023-04-04T04:50:48.387Z,3.87
2023-04-04T04:53:14.972Z,3.50
2023-04-04T04:55:43.167Z,3.87
2023-04-04T04:58:10.838Z,4.00
2023-04-04T05:00:38.306Z,3.73
2023-04-04T05:03:07.990Z,3.43
2023-04-04T05:05:34.779Z,3.80
2023-04-04T05:08:02.755Z,4.20
2023-04-04T05:10:30.040Z,5.97
2023-04-04T05:12:56.636Z,4.30
2023-04-04T05:15:23.287Z,9.23
2023-04-04T05:17:49.868Z,9.00
2023-04-04T05:20:16.359Z,7.70
2023-04-04T05:22:46.520Z,6.93
2023-04-04T05:25:13.376Z,5.00
2023-04-04T05:27:40.721Z,4.33
2023-04-04T05:30:07.967Z,4.07
2023-04-04T05:32:34.599Z,3.67
2023-04-04T05:35:01.395Z,3.47
2023-04-04T05:37:28.128Z,4.10
2023-04-04T05:39:55.239Z,4.17
2023-04-04T05:42:21.964Z,4.23
2023-04-04T05:44:48.483Z,4.73
2023-04-04T05:47:14.996Z,6.07
2023-04-04T05:49:41.571Z,5.47
2023-04-04T05:52:08.186Z,4.27
2023-04-04T05:54:34.680Z,3.60
2023-04-04T05:57:01.132Z,4.10
2023-04-04T05:59:28.695Z,3.70
2023-04-04T06:01:55.278Z,3.50
2023-04-04T06:04:21.810Z,3.77
2023-04-04T06:06:48.300Z,4.50
2023-04-04T06:09:14.784Z,3.97
2023-04-04T06:11:41.404Z,3.80
2023-04-04T06:14:08.749Z,3.60
2023-04-04T06:16:35.926Z,4.13
2023-04-04T06:19:02.894Z,3.40
2023-04-04T06:21:29.446Z,3.50
2023-04-04T06:23:55.925Z,4.10
2023-04-04T06:26:22.399Z,4.30
2023-04-04T06:28:49.816Z,3.60
2023-04-04T06:31:17.178Z,3.67
2023-04-04T06:33:43.905Z,3.70
2023-04-04T06:36:10.466Z,3.97
2023-04-04T06:38:37.022Z,3.60
2023-04-04T06:41:03.516Z,3.90
2023-04-04T06:43:30.975Z,4.10
2023-04-04T06:45:57.597Z,3.67
2023-04-04T06:48:24.057Z,3.93
2023-04-04T06:50:50.499Z,3.80
2023-04-04T06:53:17.260Z,4.10
2023-04-04T06:55:43.748Z,4.67
2023-04-04T06:58:10.510Z,3.83
2023-04-04T07:00:37.169Z,4.20
2023-04-04T07:03:04.087Z,3.50
2023-04-04T07:05:32.245Z,3.90
2023-04-04T07:07:58.849Z,3.80
2023-04-04T07:10:27.536Z,3.83
2023-04-04T07:12:53.997Z,3.20
2023-04-04T07:15:20.478Z,3.10
2023-04-04T07:17:47.283Z,3.00
2023-04-04T07:20:13.915Z,2.90
2023-04-04T07:22:41.405Z,3.03
2023-04-04T07:25:08.791Z,3.30
2023-04-04T07:27:36.076Z,3.10
2023-04-04T07:30:04.309Z,3.30
2023-04-04T07:32:31.138Z,2.90
2023-04-04T07:34:58.026Z,3.20
2023-04-04T07:37:26.614Z,3.67
2023-04-04T07:39:53.200Z,5.67
2023-04-04T07:42:23.246Z,3.50
2023-04-04T07:44:50.577Z,3.40
2023-04-04T07:47:17.717Z,2.93
2023-04-04T07:49:44.895Z,3.00
2023-04-04T07:52:11.383Z,3.37
2023-04-04T07:54:38.099Z,2.73
2023-04-04T07:57:09.770Z,2.80
2023-04-04T07:59:37.234Z,2.70
2023-04-04T08:02:03.854Z,3.00
2023-04-04T08:04:30.709Z,2.67
2023-04-04T08:06:57.578Z,2.73
2023-04-04T08:09:24.957Z,3.30
2023-04-04T08:11:51.688Z,2.30
2023-04-04T08:14:18.228Z,2.50
2023-04-04T08:16:44.681Z,2.43
2023-04-04T08:19:11.510Z,2.77
2023-04-04T08:21:38.159Z,2.60
2023-04-04T08:24:05.108Z,2.17
2023-04-04T08:26:31.978Z,2.50
2023-04-04T08:28:58.627Z,2.43
2023-04-04T08:31:25.191Z,2.37
2023-04-04T08:33:52.507Z,1.93
2023-04-04T08:36:19.693Z,2.37
2023-04-04T08:38:46.156Z,2.20
2023-04-04T08:41:13.413Z,2.37
2023-04-04T08:43:41.620Z,2.10
2023-04-04T08:46:11.526Z,2.23
2023-04-04T08:48:39.366Z,2.40
2023-04-04T08:51:09.194Z,2.10
2023-04-04T08:53:37.172Z,1.93
2023-04-04T08:56:04.523Z,2.20
2023-04-04T08:58:31.171Z,2.23
2023-04-04T09:00:57.743Z,1.90
2023-04-04T09:03:26.708Z,2.00
2023-04-04T09:05:56.680Z,1.93
2023-04-04T09:08:26.123Z,2.30
2023-04-04T09:10:53.186Z,8.63
2023-04-04T09:13:19.959Z,8.93
2023-04-04T09:15:52.292Z,4.67
2023-04-04T09:18:19.104Z,3.13
2023-04-04T09:20:48.950Z,2.37
2023-04-04T09:23:23.858Z,2.10
2023-04-04T09:28:24.632Z,2.10
2023-04-04T09:30:52.194Z,1.90
2023-04-04T09:33:21.602Z,2.03
2023-04-04T09:35:54.631Z,1.80
2023-04-04T09:38:23.737Z,1.90
2023-04-04T09:40:52.643Z,1.80
2023-04-04T09:43:19.576Z,1.70
2023-04-04T09:45:46.343Z,2.03
2023-04-04T09:48:13.670Z,1.70
2023-04-04T09:50:49.603Z,1.80
2023-04-04T09:53:19.394Z,1.93
2023-04-04T09:55:54.287Z,1.80
2023-04-04T09:58:29.005Z,1.90
2023-04-04T10:00:57.477Z,1.80
2023-04-04T10:03:24.423Z,1.50
2023-04-04T10:06:00.266Z,1.60
2023-04-04T10:08:28.503Z,1.60
2023-04-04T10:11:11.391Z,1.50
2023-04-04T10:13:43.776Z,1.70
2023-04-04T10:16:11.153Z,1.60
2023-04-04T10:18:38.123Z,1.70
2023-04-04T10:23:37.037Z,1.77
2023-04-04T10:26:03.521Z,2.00
2023-04-04T10:28:30.085Z,1.60
2023-04-04T10:31:07.112Z,1.90
2023-04-04T10:34:12.464Z,1.90
2023-04-04T10:36:47.209Z,1.50
2023-04-04T10:39:17.611Z,1.70
2023-04-04T10:41:46.259Z,1.70
2023-04-04T10:44:20.984Z,1.70
2023-04-04T10:46:51.040Z,1.70
2023-04-04T10:49:18.127Z,1.70
2023-04-04T10:51:54.851Z,1.80
2023-04-04T10:54:23.500Z,1.77
2023-04-04T10:56:50.182Z,1.90
2023-04-04T10:59:20.197Z,1.67
2023-04-04T11:01:55.052Z,1.50
2023-04-04T11:04:31.092Z,1.37
2023-04-04T11:07:05.271Z,1.93
2023-04-04T11:09:54.170Z,1.47
2023-04-04T11:12:23.985Z,1.63
2023-04-04T11:15:11.467Z,1.43
2023-04-04T11:17:43.632Z,1.30
2023-04-04T11:20:11.706Z,1.33
2023-04-04T11:22:42.735Z,1.30
2023-04-04T11:25:24.918Z,1.43
2023-04-04T11:27:54.972Z,1.30
2023-04-04T11:30:21.559Z,1.67
2023-04-04T11:32:59.762Z,1.50
2023-04-04T11:35:30.636Z,1.40
2023-04-04T11:37:57.060Z,1.30
2023-04-04T11:40:41.685Z,1.27
2023-04-04T11:43:12.092Z,1.50
2023-04-04T11:45:44.558Z,1.37
2023-04-04T11:48:11.222Z,1.30
2023-04-04T11:50:43.459Z,1.70
2023-04-04T11:53:11.319Z,1.57
2023-04-04T11:55:47.257Z,1.90
2023-04-04T11:58:16.137Z,1.50
2023-04-04T12:00:44.197Z,1.50
2023-04-04T12:03:12.341Z,1.47
2023-04-04T12:05:40.342Z,1.40
2023-04-04T12:08:08.761Z,1.87
2023-04-04T12:10:36.242Z,1.43
2023-04-04T12:13:07.276Z,1.50
2023-04-04T12:15:37.892Z,1.60
2023-04-04T12:18:07.550Z,1.90
2023-04-04T12:20:34.195Z,1.60
2023-04-04T12:23:00.868Z,1.70
2023-04-04T12:25:28.549Z,1.40
2023-04-04T12:27:55.588Z,1.60
2023-04-04T12:30:22.305Z,1.53
2023-04-04T12:32:50.165Z,1.50
2023-04-04T12:35:17.100Z,1.90
2023-04-04T12:37:58.882Z,1.63
2023-04-04T12:40:30.436Z,1.77
2023-04-04T12:42:57.342Z,1.80
2023-04-04T12:45:26.236Z,1.40
2023-04-04T12:47:54.195Z,1.80
2023-04-04T12:50:27.404Z,1.93
2023-04-04T12:52:57.433Z,1.77
2023-04-04T12:55:31.559Z,1.77
2023-04-04T12:58:00.858Z,1.90
2023-04-04T13:00:27.534Z,1.60
2023-04-04T13:02:55.872Z,1.70
2023-04-04T13:05:25.798Z,1.73
2023-04-04T13:08:05.514Z,1.70
2023-04-04T13:10:57.754Z,1.77
2023-04-04T13:14:00.639Z,1.40
2023-04-04T13:16:33.105Z,1.77
2023-04-04T13:18:59.726Z,1.93
2023-04-04T13:21:26.287Z,1.30
2023-04-04T13:23:52.972Z,1.40
2023-04-04T13:26:19.458Z,1.60
2023-04-04T13:28:46.174Z,1.70
2023-04-04T13:31:13.468Z,1.60
2023-04-04T13:33:40.286Z,1.70
2023-04-04T13:36:07.015Z,1.60
2023-04-04T13:38:33.581Z,1.50
2023-04-04T13:41:00.710Z,1.60
2023-04-04T13:43:27.760Z,1.30
2023-04-04T13:45:55.752Z,1.50
2023-04-04T13:48:22.800Z,1.67
2023-04-04T13:50:53.256Z,1.60
2023-04-04T13:53:20.159Z,1.80
2023-04-04T13:56:12.973Z,1.60
2023-04-04T13:58:33.305Z,1.83
2023-04-04T14:01:03.451Z,1.50
2023-04-04T14:03:31.442Z,1.83
2023-04-04T14:06:00.337Z,1.80
2023-04-04T14:08:31.034Z,1.40
2023-04-04T14:10:57.706Z,1.73
2023-04-04T14:13:24.162Z,1.70
2023-04-04T14:15:50.978Z,1.80
2023-04-04T14:18:17.496Z,1.30
2023-04-04T14:20:44.126Z,1.40
2023-04-04T14:23:10.747Z,1.50
2023-04-04T14:25:37.208Z,1.37
2023-04-04T14:28:03.857Z,1.67
2023-04-04T14:30:30.532Z,2.43
2023-04-04T14:32:57.037Z,1.30
2023-04-04T14:35:23.627Z,1.70
2023-04-04T14:37:50.101Z,1.80
2023-04-04T14:40:16.789Z,14.17
2023-04-04T14:42:43.249Z,2.80
2023-04-04T14:45:11.355Z,18.73
2023-04-04T14:47:37.972Z,2.67
2023-04-04T14:50:04.937Z,1.80
2023-04-04T14:52:31.672Z,2.00
2023-04-04T14:54:58.271Z,1.60
2023-04-04T14:57:24.929Z,2.00
2023-04-04T14:59:51.450Z,2.00
2023-04-04T15:02:18.284Z,2.07
2023-04-04T15:04:44.909Z,1.80
2023-04-04T15:07:11.498Z,2.13
2023-04-04T15:09:37.946Z,1.77
2023-04-04T15:12:06.701Z,1.87
2023-04-04T15:14:33.202Z,2.00
2023-04-04T15:16:59.960Z,1.97
2023-04-04T15:19:26.407Z,2.10
2023-04-04T15:21:53.322Z,2.83
2023-04-04T15:24:19.746Z,2.40
2023-04-04T15:26:46.492Z,2.00
2023-04-04T15:29:14.650Z,1.80
2023-04-04T15:31:41.504Z,2.10
2023-04-04T15:34:09.498Z,2.00
2023-04-04T15:36:36.551Z,2.20
2023-04-04T15:39:03.523Z,2.10
2023-04-04T15:41:30.161Z,2.00
2023-04-04T15:43:56.646Z,2.10
2023-04-04T15:46:23.226Z,2.13
2023-04-04T15:48:52.054Z,2.00
2023-04-04T15:51:18.666Z,1.73
2023-04-04T15:53:45.161Z,2.70
2023-04-04T15:56:11.860Z,1.87
2023-04-04T15:58:38.314Z,1.80
2023-04-04T16:01:06.598Z,2.17
2023-04-04T16:03:33.148Z,2.07
2023-04-04T16:06:00.759Z,2.50
2023-04-04T16:08:27.234Z,2.67
2023-04-04T16:10:53.762Z,2.30
2023-04-04T16:13:20.446Z,1.97
2023-04-04T16:15:50.184Z,2.00
2023-04-04T16:18:16.676Z,1.67
2023-04-04T16:20:43.138Z,1.90
2023-04-04T16:23:09.645Z,1.90
2023-04-04T16:25:36.386Z,1.90
2023-04-04T16:28:03.938Z,3.67
2023-04-04T16:30:30.430Z,2.20
2023-04-04T16:32:56.950Z,2.20
2023-04-04T16:35:23.516Z,2.23
2023-04-04T16:37:49.991Z,2.00
2023-04-04T16:40:16.618Z,1.90
2023-04-04T16:42:43.073Z,1.93
2023-04-04T16:45:10.365Z,1.83
2023-04-04T16:47:37.061Z,1.67
2023-04-04T16:50:04.869Z,2.03
2023-04-04T16:52:31.368Z,2.10
2023-04-04T16:54:57.821Z,1.80
2023-04-04T16:57:24.450Z,2.70
2023-04-04T16:59:50.898Z,2.90
2023-04-04T17:02:17.481Z,1.80
2023-04-04T17:04:44.562Z,1.63
2023-04-04T17:07:11.151Z,1.73
2023-04-04T17:09:41.337Z,1.70
2023-04-04T17:12:08.195Z,1.50
2023-04-04T17:14:35.567Z,1.77
2023-04-04T17:17:02.157Z,1.90
2023-04-04T17:19:30.325Z,2.60
2023-04-04T17:21:58.206Z,2.40
2023-04-04T17:24:25.618Z,2.30
2023-04-04T17:26:52.385Z,2.90
2023-04-04T17:29:18.967Z,2.47
2023-04-04T17:31:48.960Z,2.73
2023-04-04T17:34:16.190Z,2.97
2023-04-04T17:36:42.968Z,3.00
2023-04-04T17:39:09.596Z,3.60
2023-04-04T17:41:36.298Z,4.03
2023-04-04T17:44:03.768Z,3.80
2023-04-04T17:46:31.326Z,4.50
2023-04-04T17:48:57.857Z,4.30
2023-04-04T17:51:24.342Z,3.73
2023-04-04T17:53:51.254Z,3.60
2023-04-04T17:56:18.826Z,4.20
2023-04-04T17:58:45.759Z,4.07
2023-04-04T18:01:13.767Z,4.47
2023-04-04T18:03:40.554Z,5.57
2023-04-04T18:06:07.167Z,4.57
2023-04-04T18:08:33.610Z,4.97
2023-04-04T18:11:00.146Z,4.50
2023-04-04T18:13:26.707Z,4.93
2023-04-04T18:15:53.343Z,4.03
2023-04-04T18:18:21.309Z,3.73
2023-04-04T18:20:48.278Z,4.30
2023-04-04T18:23:16.798Z,5.10
2023-04-04T18:25:43.304Z,8.23
2023-04-04T18:28:11.631Z,11.13
2023-04-04T18:30:39.072Z,13.87
2023-04-04T18:33:06.448Z,9.33
2023-04-04T18:35:33.042Z,12.27
2023-04-04T18:38:03.003Z,8.20
2023-04-04T18:40:29.540Z,7.50
2023-04-04T18:42:56.487Z,5.60
2023-04-04T18:45:29.881Z,5.13
2023-04-04T18:48:01.393Z,5.90
2023-04-04T18:50:28.598Z,5.40
2023-04-04T18:52:56.801Z,6.30
2023-04-04T18:55:23.278Z,6.10
2023-04-04T18:57:49.815Z,7.33
2023-04-04T19:00:16.657Z,8.70
2023-04-04T19:02:43.203Z,7.83
2023-04-04T19:05:12.316Z,13.57
2023-04-04T19:07:40.275Z,16.43
2023-04-04T19:10:07.407Z,18.00
2023-04-04T19:12:34.058Z,15.63
2023-04-04T19:15:01.363Z,14.13
2023-04-04T19:17:27.980Z,12.27
2023-04-04T19:19:54.425Z,10.73
2023-04-04T19:22:20.851Z,10.10
2023-04-04T19:24:47.316Z,10.30
2023-04-04T19:27:13.790Z,12.60
2023-04-04T19:29:40.414Z,12.93
2023-04-04T19:32:13.872Z,10.97
2023-04-04T19:34:42.610Z,11.57
2023-04-04T19:37:13.303Z,11.87
2023-04-04T19:39:42.187Z,12.43
2023-04-04T19:42:09.325Z,11.47
2023-04-04T19:44:42.866Z,10.20
2023-04-04T19:47:10.538Z,10.47
2023-04-04T19:49:38.182Z,9.40
2023-04-04T19:52:05.737Z,9.40
2023-04-04T19:54:42.951Z,9.80
2023-04-04T19:57:17.547Z,9.40
2023-04-04T20:00:13.578Z,10.00
2023-04-04T20:02:51.466Z,9.20
2023-04-04T20:05:41.541Z,9.43
2023-04-04T20:08:09.671Z,9.97
2023-04-04T20:10:38.285Z,9.77
2023-04-04T20:13:08.527Z,10.37
2023-04-04T20:15:47.665Z,9.97
2023-04-04T20:18:24.467Z,10.77
2023-04-04T20:21:07.207Z,10.47
2023-04-04T20:23:49.569Z,10.07
2023-04-04T20:26:35.100Z,10.50
2023-04-04T20:29:12.040Z,10.27
2023-04-04T20:31:45.559Z,10.23
2023-04-04T20:34:41.379Z,11.07
2023-04-04T20:37:26.613Z,10.30
2023-04-04T20:40:01.127Z,11.00
2023-04-04T20:42:31.057Z,10.63
2023-04-04T20:45:10.282Z,11.37
2023-04-04T20:47:45.757Z,10.60
2023-04-04T20:50:18.487Z,11.07
2023-04-04T20:52:59.719Z,10.80
2023-04-04T20:55:28.421Z,10.60
2023-04-04T20:58:34.343Z,11.13
2023-04-04T21:01:05.522Z,11.90
2023-04-04T21:03:35.621Z,13.10
2023-04-04T21:06:11.566Z,13.23
2023-04-04T21:08:49.746Z,14.43
2023-04-04T21:11:30.212Z,14.43
2023-04-04T21:13:57.847Z,14.30
2023-04-04T21:16:26.648Z,13.67
2023-04-04T21:18:57.915Z,13.17
2023-04-04T21:21:24.386Z,12.20
2023-04-04T21:23:55.501Z,11.83
2023-04-04T21:26:28.806Z,11.77
2023-04-04T21:28:56.916Z,9.90
2023-04-04T21:31:26.223Z,9.83
2023-04-04T21:33:54.698Z,10.27
2023-04-04T21:36:24.121Z,9.63
2023-04-04T21:38:52.138Z,10.00
2023-04-04T21:41:25.869Z,10.07
2023-04-04T21:43:57.138Z,9.70
2023-04-04T21:46:25.731Z,10.43
2023-04-04T21:48:53.157Z,9.13
2023-04-04T21:51:19.864Z,9.73
2023-04-04T21:53:46.786Z,9.57
2023-04-04T21:56:13.996Z,9.67
2023-04-04T21:58:41.200Z,9.53
2023-04-04T22:01:08.158Z,9.80
2023-04-04T22:03:34.902Z,9.93
2023-04-04T22:06:01.375Z,9.27
2023-04-04T22:08:27.945Z,9.93
2023-04-04T22:10:54.486Z,8.43
2023-04-04T22:13:22.678Z,8.80
2023-04-04T22:15:49.816Z,9.03
2023-04-04T22:18:16.949Z,8.60
2023-04-04T22:20:47.662Z,8.70
2023-04-04T22:23:15.601Z,8.40
2023-04-04T22:25:42.164Z,8.97
2023-04-04T22:28:09.179Z,9.53
2023-04-04T22:30:38.787Z,9.70
2023-04-04T22:33:05.825Z,9.47
2023-04-04T22:35:32.908Z,9.87
2023-04-04T22:38:00.820Z,9.30
2023-04-04T22:40:30.709Z,9.70
2023-04-04T22:42:57.540Z,8.43
2023-04-04T22:45:24.667Z,8.87
2023-04-04T22:47:51.424Z,8.77
2023-04-04T22:50:24.490Z,8.53
2023-04-04T22:52:52.412Z,8.93
2023-04-04T22:55:20.844Z,8.60
2023-04-04T22:57:47.349Z,8.80
2023-04-04T23:00:14.719Z,8.43
2023-04-04T23:02:43.187Z,8.63
2023-04-04T23:05:11.332Z,7.67
2023-04-04T23:07:38.483Z,8.23
2023-04-04T23:10:06.375Z,7.80
2023-04-04T23:12:32.877Z,7.90
2023-04-04T23:15:01.502Z,8.50
2023-04-04T23:17:28.121Z,8.10
2023-04-04T23:19:55.110Z,7.93
2023-04-04T23:22:21.761Z,7.60
2023-04-04T23:24:48.558Z,8.13
2023-04-04T23:27:16.013Z,8.40
2023-04-04T23:29:42.953Z,8.60
2023-04-04T23:32:10.303Z,8.17
2023-04-04T23:34:37.818Z,7.77
2023-04-04T23:37:05.026Z,8.13
2023-04-04T23:39:31.811Z,8.33
2023-04-04T23:42:01.150Z,7.83
2023-04-04T23:44:27.650Z,7.60
2023-04-04T23:46:54.274Z,8.37
2023-04-04T23:49:20.805Z,7.77
2023-04-04T23:51:47.332Z,7.80
2023-04-04T23:54:13.810Z,8.10
2023-04-04T23:56:40.782Z,8.30
2023-04-04T23:59:07.457Z,8.57
